Latest Weather Observations for Warruwi

IDD60801

Issued at 8:01 pm CST Sunday 29 March 2015 (issued every 30 minutes, with the page automatically refreshed every 10 minutes)

About weather observations | Map of weather stations | Latest weather observations for NT | Other Formats
Station Details ID: 014401 Name: WARRUWI AIRPORT Lat: -11.65 Lon: 133.38 Height: 19.2 m
Data from the previous 72 hours. | See also: Recent months at Warruwi
Date/Time
CST
Temp
°C
App
Temp
°C
Dew
Point
Rel
Hum
%
Delta-T
°C
Wind Press
QNH
hPa
Press
MSL
hPa
Rain
since 9 am
mm
Dir
 
Spd
km/h
Gust
km/h
Spd
kts
Gust
kts
29/08:00pm 28.0 32.6 23.8 78 2.9 NE 6 9 3 5 1012.2 1012.0 0.0
29/07:30pm 28.1 32.6 23.7 77 3.0 ENE 6 9 3 5 1011.7 1011.5 0.0
29/07:00pm 28.4 32.2 23.5 75 3.4 ENE 9 17 5 9 1011.5 1011.3 0.0
29/06:30pm 28.9 31.9 23.3 72 3.8 E 13 19 7 10 1011.3 1011.1 0.0
29/06:00pm 29.5 32.3 23.0 68 4.5 E 13 19 7 10 1011.3 1011.1 0.0
29/05:30pm 29.9 32.9 23.3 67 4.5 E 13 20 7 11 1011.3 1011.1 0.0
29/05:00pm 30.1 33.2 23.5 67 4.6 E 13 19 7 10 1011.1 1010.9 0.0
29/04:30pm 30.0 32.2 23.9 70 4.2 E 19 26 10 14 1011.1 1010.9 0.0
29/04:00pm 30.3 32.9 24.0 69 4.4 E 17 24 9 13 1011.0 1010.8 0.0
29/03:30pm 30.2 32.3 23.1 65 4.9 E 17 30 9 16 1011.1 1010.9 0.0
29/03:00pm 30.4 32.2 23.3 66 4.9 E 19 28 10 15 1011.1 1010.9 0.0
29/02:30pm 30.1 31.2 23.0 65 4.9 E 22 30 12 16 1011.4 1011.2 0.0
29/02:00pm 30.5 32.7 24.2 69 4.4 E 20 28 11 15 1011.8 1011.6 0.0
29/01:30pm 30.6 33.1 24.7 71 4.1 E 20 28 11 15 1012.0 1011.8 0.0
29/01:00pm 30.6 32.7 23.8 67 4.7 E 19 28 10 15 1012.4 1012.2 0.0
29/12:30pm 30.3 32.6 23.5 67 4.7 E 17 24 9 13 1012.8 1012.6 0.0
29/12:00pm 30.2 32.6 22.9 65 5.0 E 15 22 8 12 1013.2 1013.0 0.0
29/11:30am 30.3 32.6 23.5 67 4.7 E 17 22 9 12 1013.5 1013.3 0.0
29/11:00am 30.0 33.5 24.2 71 4.0 E 13 19 7 10 1013.8 1013.6 0.0
29/10:30am 29.6 32.5 23.8 71 4.0 E 15 19 8 10 1013.8 1013.6 0.0
29/10:00am 29.1 31.6 23.1 70 4.1 E 15 22 8 12 1013.7 1013.5 0.0
29/09:30am 28.9 31.3 22.9 70 4.1 ESE 15 22 8 12 1013.6 1013.4 0.0
29/09:00am 28.7 31.4 23.4 73 3.6 ESE 15 20 8 11 1013.4 1013.2 0.0
29/08:30am 28.6 32.2 24.4 78 2.9 ESE 13 19 7 10 1013.4 1013.2 0.0
29/08:00am 27.9 31.8 24.3 81 2.5 SE 11 17 6 9 1013.2 1013.0 0.0
29/07:30am 27.5 31.7 24.7 85 2.0 SE 11 15 6 8 1012.7 1012.5 0.0
29/07:00am 26.4 31.4 24.8 91 1.1 SE 7 9 4 5 1012.5 1012.3 0.0
29/06:30am 26.1 31.1 24.5 91 1.1 SE 6 9 3 5 1012.1 1011.9 0.0
29/06:00am 26.3 31.2 24.7 91 1.1 SE 7 9 4 5 1011.7 1011.5 0.0
29/05:30am 26.5 31.5 24.5 89 1.4 SE 6 9 3 5 1011.6 1011.4 0.0
29/05:00am 27.0 31.4 24.5 86 1.7 SE 9 11 5 6 1011.5 1011.3 0.0
29/04:30am 27.4 30.7 23.2 78 2.9 E 11 15 6 8 1011.3 1011.1 0.0
29/04:00am 27.4 30.6 23.0 77 3.0 E 11 15 6 8 1011.3 1011.1 0.0
29/03:30am 27.4 30.6 23.0 77 3.0 E 11 17 6 9 1011.4 1011.2 0.0
29/03:00am 27.6 30.9 23.2 77 3.0 E 11 17 6 9 1011.5 1011.3 0.0
29/02:30am 27.7 30.7 23.3 77 3.0 E 13 19 7 10 1011.7 1011.5 0.0
29/02:00am 27.6 31.1 23.6 79 2.7 E 11 15 6 8 1012.0 1011.8 0.0
29/01:30am 27.6 31.0 23.4 78 2.9 E 11 17 6 9 1012.3 1012.1 0.0
29/01:00am 27.7 31.7 23.7 79 2.8 E 9 15 5 8 1013.0 1012.8 0.0
29/12:30am 27.7 31.5 23.5 78 2.9 E 9 13 5 7 1013.2 1013.0 0.0
29/12:00am 27.5 32.4 24.6 84 2.0 ENE 7 13 4 7 1013.3 1013.1 0.0
 
Date/Time
CST
Temp
°C
App
Temp
°C
Dew
Point
Rel
Hum
%
Delta-T
°C
Wind Press
QNH
hPa
Press
MSL
hPa
Rain
since 9 am
mm
Dir
 
Spd
km/h
Gust
km/h
Spd
kts
Gust
kts
28/11:30pm 27.0 32.3 25.0 89 1.4 ENE 6 9 3 5 1013.4 1013.2 0.0
28/11:00pm 26.2 31.9 25.0 93 0.8 ENE 4 6 2 3 1013.6 1013.4 0.0
28/10:30pm 26.1 32.1 24.9 93 0.8 ENE 2 6 1 3 1013.6 1013.4 0.0
28/10:00pm 26.3 32.2 24.7 91 1.1 ENE 2 4 1 2 1013.4 1013.2 0.0
28/09:30pm 26.4 32.1 24.4 89 1.4 NE 2 7 1 4 1013.4 1013.2 0.0
28/09:00pm 27.2 32.5 24.3 84 2.0 ENE 4 6 2 3 1013.1 1012.9 0.0
28/08:30pm 27.3 32.6 24.4 84 2.0 ENE 4 6 2 3 1012.7 1012.5 0.0
28/08:00pm 27.7 32.6 24.3 82 2.4 NE 6 9 3 5 1012.4 1012.2 0.0
28/07:30pm 27.8 32.4 23.8 79 2.8 ENE 6 9 3 5 1012.0 1011.8 0.0
28/07:00pm 27.8 32.5 24.0 80 2.6 ENE 6 7 3 4 1011.7 1011.5 0.0
28/06:30pm 28.2 32.6 23.8 77 3.0 E 7 13 4 7 1011.5 1011.3 0.0
28/06:00pm 28.9 32.9 23.8 74 3.5 E 9 13 5 7 1011.4 1011.2 0.0
28/05:30pm 29.5 33.6 23.9 72 3.9 E 9 15 5 8 1011.2 1011.0 0.0
28/05:00pm 29.8 33.7 24.2 72 3.9 E 11 17 6 9 1011.2 1011.0 0.0
28/04:30pm 29.9 33.8 24.3 72 3.9 E 11 17 6 9 1010.9 1010.7 0.0
28/04:00pm 29.8 33.0 24.4 73 3.8 E 15 24 8 13 1010.8 1010.6 0.0
28/03:30pm 30.2 33.7 24.8 73 3.8 E 15 22 8 12 1011.1 1010.9 0.0
28/03:00pm 30.4 34.7 25.5 75 3.5 E 13 20 7 11 1011.2 1011.0 0.0
28/02:30pm 30.2 34.1 25.5 76 3.3 E 15 20 8 11 1011.4 1011.2 0.0
28/02:00pm 30.1 33.4 24.5 72 3.9 E 15 22 8 12 1011.8 1011.6 0.0
28/01:30pm 30.3 33.7 24.7 72 3.9 E 15 22 8 12 1012.3 1012.1 0.0
28/01:00pm 30.2 33.6 24.6 72 3.9 E 15 24 8 13 1012.6 1012.4 0.0
28/12:30pm 30.3 33.5 24.4 70 4.1 E 15 20 8 11 1013.2 1013.0 0.0
28/12:00pm 29.8 32.9 24.2 72 3.9 E 15 20 8 11 1013.5 1013.3 0.0
28/11:30am 29.6 33.8 25.4 78 3.0 E 13 20 7 11 1013.8 1013.6 0.0
28/11:00am 30.0 35.8 26.0 79 2.8 E 7 13 4 7 1014.0 1013.8 0.0
28/10:30am 29.6 34.4 25.1 77 3.2 ESE 9 13 5 7 1014.1 1013.9 0.0
28/10:00am 29.4 34.1 24.9 77 3.2 E 9 13 5 7 1014.1 1013.9 0.0
28/09:30am 29.2 34.6 25.4 80 2.7 E 7 11 4 6 1014.0 1013.8 0.0
28/09:00am 28.9 34.3 25.1 80 2.7 E 6 9 3 5 1013.8 1013.6 0.2
28/08:30am 28.7 34.3 25.5 83 2.3 SE 6 7 3 4 1013.7 1013.5 0.2
28/08:00am 27.8 33.2 25.2 86 1.8 SE 6 7 3 4 1013.4 1013.2 0.2
28/07:30am 26.4 33.6 26.1 98 0.2 CALM 0 0 0 0 1012.9 1012.7 0.2
28/07:00am 25.2 31.6 24.9 98 0.2 CALM 0 0 0 0 1012.5 1012.3 0.2
28/06:30am 25.2 31.6 24.9 98 0.2 CALM 0 0 0 0 1012.3 1012.1 0.2
28/06:00am 25.4 31.0 24.9 97 0.3 S 4 6 2 3 1012.0 1011.8 0.2
28/05:30am 25.6 31.4 25.1 97 0.3 SSW 4 6 2 3 1012.0 1011.8 0.2
28/05:00am 25.8 31.7 25.3 97 0.3 SSW 4 4 2 2 1012.0 1011.8 0.2
28/04:30am 25.7 31.5 25.2 97 0.3 SSW 4 6 2 3 1011.6 1011.4 0.2
28/04:00am 25.8 31.9 25.1 96 0.5 SSW 2 4 1 2 1011.5 1011.3 0.2
28/03:30am 25.8 31.6 25.1 96 0.5 SW 4 6 2 3 1011.7 1011.5 0.2
28/03:00am 26.0 32.3 25.3 96 0.5 S 2 4 1 2 1012.1 1011.9 0.2
28/02:30am 26.1 31.9 25.2 95 0.6 SSW 4 4 2 2 1012.3 1012.1 0.2
28/02:00am 26.6 32.7 25.6 94 0.7 SW 4 6 2 3 1012.5 1012.3 0.2
28/01:30am 26.3 32.6 25.3 94 0.7 WNW 2 4 1 2 1012.5 1012.3 0.2
28/01:00am 26.1 32.0 25.4 96 0.5 NW 4 6 2 3 1012.9 1012.7 0.2
28/12:30am 25.9 32.7 25.6 98 0.2 CALM 0 4 0 2 1013.4 1013.2 0.2
28/12:00am 26.0 32.5 25.7 98 0.2 NW 2 4 1 2 1013.8 1013.6 0.2
 
Date/Time
CST
Temp
°C
App
Temp
°C
Dew
Point
Rel
Hum
%
Delta-T
°C
Wind Press
QNH
hPa
Press
MSL
hPa
Rain
since 9 am
mm
Dir
 
Spd
km/h
Gust
km/h
Spd
kts
Gust
kts
27/11:30pm 26.2 33.1 25.7 97 0.4 CALM 0 0 0 0 1014.1 1013.9 0.2
27/11:00pm 26.2 33.0 25.5 96 0.5 CALM 0 0 0 0 1014.3 1014.1 0.2
27/10:30pm 26.2 33.0 25.5 96 0.5 CALM 0 0 0 0 1014.2 1014.0 0.2
27/10:00pm 26.1 32.3 25.2 95 0.6 WNW 2 2 1 1 1014.0 1013.8 0.2
27/09:30pm 26.5 33.3 25.5 94 0.7 CALM 0 2 0 1 1014.0 1013.8 0.2
27/09:00pm 26.6 33.1 25.6 94 0.7 NE 2 4 1 2 1014.0 1013.8 0.2
27/08:30pm 27.0 33.5 25.6 92 1.0 NE 2 2 1 1 1013.9 1013.7 0.2
27/08:00pm 27.1 33.4 25.3 90 1.3 NE 2 4 1 2 1013.4 1013.2 0.2
27/07:30pm 27.6 33.8 25.2 87 1.7 NE 2 6 1 3 1013.1 1012.9 0.2
27/07:00pm 27.9 33.5 24.9 84 2.1 NE 4 7 2 4 1012.3 1012.1 0.2
27/06:30pm 28.6 33.7 24.6 79 2.8 NE 6 7 3 4 1012.0 1011.8 0.2
27/06:00pm 29.8 34.5 24.0 71 4.0 NE 6 7 3 4 1011.7 1011.5 0.2
27/05:30pm 30.5 35.2 23.9 68 4.6 N 6 7 3 4 1011.5 1011.3 0.2
27/05:00pm 30.4 35.1 25.0 73 3.8 E 9 13 5 7 1011.2 1011.0 0.2
27/04:30pm 31.4 37.1 25.0 69 4.5 NNE 4 7 2 4 1011.0 1010.8 0.2
27/04:00pm 31.8 37.6 25.2 68 4.7 NW 4 7 2 4 1011.1 1010.9 0.2
27/03:30pm 30.9 35.0 23.0 62 5.4 W 6 9 3 5 1011.4 1011.2 0.2
27/03:00pm 30.6 34.9 24.3 69 4.4 W 9 13 5 7 1011.6 1011.4 0.2
27/02:30pm 30.7 35.3 24.8 71 4.1 W 9 15 5 8 1011.8 1011.6 0.2
27/02:00pm 30.5 34.1 23.7 67 4.7 W 11 15 6 8 1012.4 1012.2 0.2
27/01:30pm 30.2 34.9 25.0 73 3.7 WSW 9 15 5 8 1013.0 1012.8 0.2
27/01:00pm 29.5 34.4 25.3 78 3.0 E 9 13 5 7 1013.8 1013.6 0.2
27/12:30pm 30.1 35.5 25.4 76 3.3 SE 7 20 4 11 1014.0 1013.8 0.2
27/12:00pm 30.7 36.3 25.8 75 3.5 SW 7 17 4 9 1014.0 1013.8 0.2
27/11:30am 30.6 35.6 23.8 67 4.7 NW 4 9 2 5 1014.5 1014.3 0.2
27/11:00am 30.1 36.2 25.6 77 3.2 S 4 6 2 3 1015.1 1014.9 0.2
27/10:30am 30.0 35.9 25.3 76 3.3 SE 4 7 2 4 1015.5 1015.3 0.2
27/10:00am 28.9 34.7 25.1 80 2.7 ESE 4 6 2 3 1015.8 1015.6 0.2
27/09:30am 28.1 34.0 25.3 85 2.0 SSE 4 6 2 3 1015.9 1015.7 0.2
27/09:00am 27.5 33.8 25.3 88 1.5 ESE 2 6 1 3 1015.8 1015.6 28.4
27/08:30am 27.2 33.0 25.2 89 1.4 SE 4 6 2 3 1015.6 1015.4 28.4
27/08:00am 26.8 33.0 25.8 94 0.7 SSE 4 6 2 3 1015.3 1015.1 28.4
27/07:30am 26.2 32.5 25.3 95 0.6 SE 2 4 1 2 1014.9 1014.7 28.4
27/07:00am 25.8 31.2 25.1 96 0.5 E 6 7 3 4 1014.3 1014.1 28.4
27/06:30am 25.6 31.1 24.6 94 0.7 ESE 4 9 2 5 1013.9 1013.7 28.4
27/06:00am 25.8 30.4 24.8 94 0.7 ESE 9 13 5 7 1013.6 1013.4 28.4
27/05:30am 26.0 30.8 25.1 95 0.6 SE 9 15 5 8 1013.2 1013.0 28.4
27/05:00am 26.0 30.0 25.1 95 0.6 ESE 13 19 7 10 1013.1 1012.9 28.4
27/04:30am 25.9 30.3 25.0 95 0.6 ESE 11 19 6 10 1013.0 1012.8 28.4
27/04:00am 26.0 30.4 25.1 95 0.6 SE 11 20 6 11 1013.1 1012.9 28.4
27/03:30am 26.8 31.8 24.5 87 1.6 ENE 6 9 3 5 1013.2 1013.0 28.4
27/03:00am 26.8 31.3 23.9 84 2.0 ENE 7 11 4 6 1013.5 1013.3 28.4
27/02:30am 26.8 31.8 24.5 87 1.6 ENE 6 11 3 6 1013.9 1013.7 28.4
27/02:00am 26.8 31.9 24.6 88 1.5 NE 6 9 3 5 1014.4 1014.2 28.4
27/01:30am 26.9 32.1 25.1 90 1.3 ENE 7 13 4 7 1014.8 1014.6 28.4
27/01:00am 26.5 31.8 24.9 91 1.1 ENE 6 9 3 5 1015.0 1014.8 28.4
27/12:30am 26.5 32.3 25.1 92 1.0 ENE 4 7 2 4 1015.2 1015.0 28.4
27/12:00am 26.3 31.9 25.4 95 0.6 ENE 6 7 3 4 1015.5 1015.3 28.4
 
Date/Time
CST
Temp
°C
App
Temp
°C
Dew
Point
Rel
Hum
%
Delta-T
°C
Wind Press
QNH
hPa
Press
MSL
hPa
Rain
since 9 am
mm
Dir
 
Spd
km/h
Gust
km/h
Spd
kts
Gust
kts
26/11:30pm 26.7 32.0 25.3 92 1.0 E 7 13 4 7 1015.9 1015.7 28.4
26/11:00pm 26.5 32.4 25.3 93 0.8 ENE 4 6 2 3 1016.1 1015.9 28.4
26/10:30pm 26.5 32.4 25.3 93 0.8 ENE 4 6 2 3 1015.9 1015.7 28.4
26/10:00pm 26.5 32.9 25.5 94 0.7 ENE 2 6 1 3 1016.0 1015.8 28.4
26/09:30pm 26.5 32.5 25.5 94 0.7 ENE 4 6 2 3 1015.5 1015.3 28.4
26/09:00pm 26.4 32.7 25.4 94 0.7 ENE 2 4 1 2 1015.2 1015.0 28.4
26/08:30pm 26.4 32.8 25.5 95 0.6 NE 2 4 1 2 1014.7 1014.5 28.4

Other Formats:

Comma delimited format used in spreadsheet applications
http://www.bom.gov.au/fwo/IDD60801/IDD60801.94139.axf

JavaScript Object Notation format (JSON) in row-major order
http://www.bom.gov.au/fwo/IDD60801/IDD60801.94139.json